sensor_id;sensor_type;location;lat;lon;timestamp;pressure;altitude;pressure_sealevel;temperature;humidity
73171;BME280;61381;50.118;19.962;2023-02-08T00:01:06;100916.91;;;-3.21;100.00
73171;BME280;61381;50.118;19.962;2023-02-08T00:06:08;100916.38;;;-3.15;100.00
73171;BME280;61381;50.118;19.962;2023-02-08T00:11:11;100917.06;;;-3.23;100.00
73171;BME280;61381;50.118;19.962;2023-02-08T00:16:13;100917.34;;;-3.16;100.00
73171;BME280;61381;50.118;19.962;2023-02-08T00:21:16;100924.31;;;-3.36;100.00
73171;BME280;61381;50.118;19.962;2023-02-08T00:26:19;100918.47;;;-3.40;100.00
73171;BME280;61381;50.118;19.962;2023-02-08T00:31:20;100926.78;;;-3.35;100.00
73171;BME280;61381;50.118;19.962;2023-02-08T00:36:21;100920.72;;;-3.35;100.00
73171;BME280;61381;50.118;19.962;2023-02-08T00:41:24;100918.81;;;-3.24;100.00
73171;BME280;61381;50.118;19.962;2023-02-08T00:46:25;100918.09;;;-3.35;100.00
73171;BME280;61381;50.118;19.962;2023-02-08T00:51:26;100916.19;;;-3.33;100.00
73171;BME280;61381;50.118;19.962;2023-02-08T00:56:29;100916.13;;;-3.43;100.00
73171;BME280;61381;50.118;19.962;2023-02-08T01:01:30;100925.66;;;-3.42;100.00
73171;BME280;61381;50.118;19.962;2023-02-08T01:06:31;100917.66;;;-3.41;100.00
73171;BME280;61381;50.118;19.962;2023-02-08T01:11:33;100927.00;;;-3.48;100.00
73171;BME280;61381;50.118;19.962;2023-02-08T01:16:35;100929.38;;;-3.45;100.00
73171;BME280;61381;50.118;19.962;2023-02-08T01:21:39;100937.59;;;-3.59;100.00
73171;BME280;61381;50.118;19.962;2023-02-08T01:26:42;100933.44;;;-3.62;100.00
73171;BME280;61381;50.118;19.962;2023-02-08T01:31:44;100927.91;;;-3.68;100.00
73171;BME280;61381;50.118;19.962;2023-02-08T01:36:45;100924.59;;;-3.70;100.00
73171;BME280;61381;50.118;19.962;2023-02-08T01:41:48;100925.66;;;-3.73;100.00
73171;BME280;61381;50.118;19.962;2023-02-08T01:46:49;100925.94;;;-3.76;100.00
73171;BME280;61381;50.118;19.962;2023-02-08T01:51:56;100926.63;;;-3.74;100.00
73171;BME280;61381;50.118;19.962;2023-02-08T01:57:01;100925.66;;;-3.73;100.00
73171;BME280;61381;50.118;19.962;2023-02-08T02:02:03;100936.44;;;-3.66;100.00
73171;BME280;61381;50.118;19.962;2023-02-08T02:07:04;100939.44;;;-3.71;100.00
73171;BME280;61381;50.118;19.962;2023-02-08T02:12:08;100933.31;;;-3.60;100.00
73171;BME280;61381;50.118;19.962;2023-02-08T02:17:10;100941.16;;;-3.60;100.00
73171;BME280;61381;50.118;19.962;2023-02-08T02:33:22;100939.84;;;-3.45;100.00
73171;BME280;61381;50.118;19.962;2023-02-08T02:38:39;100939.31;;;-3.38;100.00
73171;BME280;61381;50.118;19.962;2023-02-08T02:43:45;100937.28;;;-3.35;100.00
73171;BME280;61381;50.118;19.962;2023-02-08T02:48:55;100942.38;;;-3.33;100.00
73171;BME280;61381;50.118;19.962;2023-02-08T02:54:02;100939.91;;;-3.25;100.00
73171;BME280;61381;50.118;19.962;2023-02-08T02:59:08;100954.31;;;-3.10;100.00
73171;BME280;61381;50.118;19.962;2023-02-08T03:04:13;100951.88;;;-2.92;100.00
73171;BME280;61381;50.118;19.962;2023-02-08T03:09:27;100959.47;;;-2.98;100.00
73171;BME280;61381;50.118;19.962;2023-02-08T03:14:35;100958.47;;;-3.07;100.00
73171;BME280;61381;50.118;19.962;2023-02-08T03:19:44;100965.19;;;-3.14;100.00
73171;BME280;61381;50.118;19.962;2023-02-08T03:24:53;100971.44;;;-3.06;100.00
73171;BME280;61381;50.118;19.962;2023-02-08T03:29:59;100971.72;;;-2.99;100.00
73171;BME280;61381;50.118;19.962;2023-02-08T03:35:05;100985.28;;;-2.94;100.00
73171;BME280;61381;50.118;19.962;2023-02-08T03:40:11;100986.16;;;-3.14;100.00
73171;BME280;61381;50.118;19.962;2023-02-08T03:45:17;100993.69;;;-3.00;100.00
73171;BME280;61381;50.118;19.962;2023-02-08T03:50:22;100994.78;;;-3.02;100.00
73171;BME280;61381;50.118;19.962;2023-02-08T03:55:26;100998.47;;;-3.05;100.00
73171;BME280;61381;50.118;19.962;2023-02-08T04:00:30;100998.09;;;-3.00;100.00
73171;BME280;61381;50.118;19.962;2023-02-08T04:05:35;101004.31;;;-3.01;100.00
73171;BME280;61381;50.118;19.962;2023-02-08T04:10:37;100992.25;;;-3.14;100.00
73171;BME280;61381;50.118;19.962;2023-02-08T04:15:38;100988.09;;;-3.26;100.00
73171;BME280;61381;50.118;19.962;2023-02-08T04:20:40;100975.88;;;-3.37;100.00
73171;BME280;61381;50.118;19.962;2023-02-08T04:25:42;100971.16;;;-3.43;100.00
73171;BME280;61381;50.118;19.962;2023-02-08T04:30:43;100958.63;;;-3.39;100.00
73171;BME280;61381;50.118;19.962;2023-02-08T04:35:46;100951.25;;;-3.55;100.00
73171;BME280;61381;50.118;19.962;2023-02-08T04:40:47;100955.13;;;-3.50;100.00
73171;BME280;61381;50.118;19.962;2023-02-08T04:45:48;100961.59;;;-3.54;100.00
73171;BME280;61381;50.118;19.962;2023-02-08T04:50:53;100964.47;;;-3.57;100.00
73171;BME280;61381;50.118;19.962;2023-02-08T04:55:54;100983.56;;;-3.45;100.00
73171;BME280;61381;50.118;19.962;2023-02-08T05:00:56;100989.97;;;-3.28;100.00
73171;BME280;61381;50.118;19.962;2023-02-08T05:05:59;101002.44;;;-3.20;100.00
73171;BME280;61381;50.118;19.962;2023-02-08T05:11:00;101011.72;;;-3.07;100.00
73171;BME280;61381;50.118;19.962;2023-02-08T05:16:01;101014.41;;;-2.97;100.00
73171;BME280;61381;50.118;19.962;2023-02-08T05:21:04;101021.41;;;-2.97;100.00
73171;BME280;61381;50.118;19.962;2023-02-08T05:26:06;101016.63;;;-2.92;100.00
73171;BME280;61381;50.118;19.962;2023-02-08T05:31:09;101029.19;;;-2.86;100.00
73171;BME280;61381;50.118;19.962;2023-02-08T05:36:12;101026.31;;;-2.83;100.00
73171;BME280;61381;50.118;19.962;2023-02-08T05:41:13;101032.28;;;-3.12;100.00
73171;BME280;61381;50.118;19.962;2023-02-08T05:46:14;101033.22;;;-3.13;100.00
73171;BME280;61381;50.118;19.962;2023-02-08T05:51:17;101047.38;;;-2.94;100.00
73171;BME280;61381;50.118;19.962;2023-02-08T05:56:18;101051.81;;;-2.85;100.00
73171;BME280;61381;50.118;19.962;2023-02-08T06:01:19;101061.97;;;-2.61;100.00
73171;BME280;61381;50.118;19.962;2023-02-08T06:06:21;101064.63;;;-3.01;100.00
73171;BME280;61381;50.118;19.962;2023-02-08T06:11:22;101068.84;;;-3.10;100.00
73171;BME280;61381;50.118;19.962;2023-02-08T06:16:24;101073.97;;;-3.09;100.00
73171;BME280;61381;50.118;19.962;2023-02-08T06:21:26;101074.50;;;-3.05;100.00
73171;BME280;61381;50.118;19.962;2023-02-08T06:26:27;101080.59;;;-3.05;100.00
73171;BME280;61381;50.118;19.962;2023-02-08T06:31:28;101072.69;;;-3.14;100.00
73171;BME280;61381;50.118;19.962;2023-02-08T06:36:31;101078.31;;;-3.19;100.00
73171;BME280;61381;50.118;19.962;2023-02-08T06:41:32;101088.09;;;-3.21;100.00
73171;BME280;61381;50.118;19.962;2023-02-08T06:46:33;101092.19;;;-3.28;100.00
73171;BME280;61381;50.118;19.962;2023-02-08T06:51:35;101099.91;;;-3.06;100.00
73171;BME280;61381;50.118;19.962;2023-02-08T06:56:37;101104.91;;;-3.02;100.00
73171;BME280;61381;50.118;19.962;2023-02-08T07:01:38;101100.19;;;-2.68;100.00
73171;BME280;61381;50.118;19.962;2023-02-08T07:06:40;101115.66;;;-2.65;100.00
73171;BME280;61381;50.118;19.962;2023-02-08T07:11:41;101118.63;;;-2.48;100.00
73171;BME280;61381;50.118;19.962;2023-02-08T07:16:42;101133.03;;;-2.43;100.00
73171;BME280;61381;50.118;19.962;2023-02-08T07:21:45;101117.16;;;-2.41;100.00
73171;BME280;61381;50.118;19.962;2023-02-08T07:26:46;101132.06;;;-2.42;100.00
73171;BME280;61381;50.118;19.962;2023-02-08T07:31:47;101139.47;;;-2.57;100.00
73171;BME280;61381;50.118;19.962;2023-02-08T07:36:50;101139.34;;;-2.55;100.00
73171;BME280;61381;50.118;19.962;2023-02-08T07:41:51;101152.34;;;-2.44;100.00
73171;BME280;61381;50.118;19.962;2023-02-08T07:46:52;101147.75;;;-2.61;100.00
73171;BME280;61381;50.118;19.962;2023-02-08T07:51:55;101144.16;;;-2.10;100.00
73171;BME280;61381;50.118;19.962;2023-02-08T07:56:56;101138.91;;;-2.10;100.00
73171;BME280;61381;50.118;19.962;2023-02-08T08:01:57;101153.75;;;-1.60;100.00
73171;BME280;61381;50.118;19.962;2023-02-08T08:07:00;101150.56;;;-1.15;100.00
73171;BME280;61381;50.118;19.962;2023-02-08T08:12:01;101153.91;;;-1.62;100.00
73171;BME280;61381;50.118;19.962;2023-02-08T08:17:02;101160.00;;;-1.51;100.00
73171;BME280;61381;50.118;19.962;2023-02-08T08:22:04;101155.00;;;-1.64;100.00
73171;BME280;61381;50.118;19.962;2023-02-08T08:27:06;101171.59;;;-1.24;100.00
73171;BME280;61381;50.118;19.962;2023-02-08T08:32:07;101174.13;;;-0.76;100.00
73171;BME280;61381;50.118;19.962;2023-02-08T08:37:10;101176.78;;;-0.38;100.00
73171;BME280;61381;50.118;19.962;2023-02-08T08:42:11;101173.13;;;-0.65;100.00
73171;BME280;61381;50.118;19.962;2023-02-08T08:47:12;101184.31;;;-0.25;100.00
73171;BME280;61381;50.118;19.962;2023-02-08T08:52:15;101193.78;;;0.23;100.00
73171;BME280;61381;50.118;19.962;2023-02-08T08:57:16;101191.13;;;-0.23;100.00
73171;BME280;61381;50.118;19.962;2023-02-08T09:02:17;101198.19;;;0.23;100.00
73171;BME280;61381;50.118;19.962;2023-02-08T09:07:20;101202.06;;;0.28;100.00
73171;BME280;61381;50.118;19.962;2023-02-08T09:12:21;101211.91;;;-0.20;100.00
73171;BME280;61381;50.118;19.962;2023-02-08T09:17:22;101204.66;;;-0.45;100.00
73171;BME280;61381;50.118;19.962;2023-02-08T09:22:25;101206.44;;;0.56;100.00
73171;BME280;61381;50.118;19.962;2023-02-08T09:27:26;101214.03;;;-0.05;100.00
73171;BME280;61381;50.118;19.962;2023-02-08T09:32:30;101212.66;;;-0.09;100.00
73171;BME280;61381;50.118;19.962;2023-02-08T09:37:33;101224.72;;;0.39;100.00
73171;BME280;61381;50.118;19.962;2023-02-08T09:42:38;101215.38;;;-0.57;100.00
73171;BME280;61381;50.118;19.962;2023-02-08T09:47:43;101210.97;;;-0.28;100.00
73171;BME280;61381;50.118;19.962;2023-02-08T09:52:56;101212.22;;;-0.32;100.00
73171;BME280;61381;50.118;19.962;2023-02-08T09:58:03;101218.22;;;-0.12;100.00
73171;BME280;61381;50.118;19.962;2023-02-08T10:03:24;101204.97;;;-0.58;100.00
73171;BME280;61381;50.118;19.962;2023-02-08T10:08:29;101215.13;;;-0.73;100.00
73171;BME280;61381;50.118;19.962;2023-02-08T10:13:48;101193.72;;;-1.17;100.00
73171;BME280;61381;50.118;19.962;2023-02-08T10:18:56;101199.25;;;-1.01;100.00
73171;BME280;61381;50.118;19.962;2023-02-08T10:24:23;101202.06;;;-0.65;100.00
73171;BME280;61381;50.118;19.962;2023-02-08T10:35:02;101201.28;;;0.18;100.00
73171;BME280;61381;50.118;19.962;2023-02-08T10:40:18;101200.56;;;0.62;100.00
73171;BME280;61381;50.118;19.962;2023-02-08T10:45:24;101201.94;;;0.02;100.00
73171;BME280;61381;50.118;19.962;2023-02-08T10:50:32;101194.16;;;0.46;100.00
73171;BME280;61381;50.118;19.962;2023-02-08T10:55:38;101196.31;;;0.33;100.00
73171;BME280;61381;50.118;19.962;2023-02-08T11:00:42;101194.97;;;0.29;100.00
73171;BME280;61381;50.118;19.962;2023-02-08T11:05:43;101192.34;;;0.65;100.00
73171;BME280;61381;50.118;19.962;2023-02-08T11:10:56;101189.53;;;0.30;100.00
73171;BME280;61381;50.118;19.962;2023-02-08T11:15:57;101195.94;;;0.46;100.00
73171;BME280;61381;50.118;19.962;2023-02-08T11:21:02;101193.66;;;1.31;100.00
73171;BME280;61381;50.118;19.962;2023-02-08T11:26:18;101194.66;;;1.65;99.95
73171;BME280;61381;50.118;19.962;2023-02-08T11:31:20;101193.41;;;1.85;100.00
73171;BME280;61381;50.118;19.962;2023-02-08T11:36:21;101184.97;;;2.41;98.81
73171;BME280;61381;50.118;19.962;2023-02-08T11:41:24;101194.47;;;1.58;99.01
73171;BME280;61381;50.118;19.962;2023-02-08T11:46:26;101181.25;;;0.79;100.00
73171;BME280;61381;50.118;19.962;2023-02-08T11:51:30;101168.06;;;0.07;100.00
73171;BME280;61381;50.118;19.962;2023-02-08T11:56:34;101171.00;;;-0.24;100.00
73171;BME280;61381;50.118;19.962;2023-02-08T12:01:37;101170.22;;;-0.06;100.00
73171;BME280;61381;50.118;19.962;2023-02-08T12:12:12;101167.09;;;0.08;100.00
73171;BME280;61381;50.118;19.962;2023-02-08T12:18:01;101157.63;;;0.15;100.00
73171;BME280;61381;50.118;19.962;2023-02-08T12:23:23;101151.41;;;0.43;100.00
73171;BME280;61381;50.118;19.962;2023-02-08T12:28:42;101146.38;;;0.67;100.00
73171;BME280;61381;50.118;19.962;2023-02-08T12:33:54;101149.03;;;0.49;100.00
73171;BME280;61381;50.118;19.962;2023-02-08T12:39:14;101145.72;;;0.29;100.00
73171;BME280;61381;50.118;19.962;2023-02-08T12:44:52;101140.66;;;0.00;100.00
73171;BME280;61381;50.118;19.962;2023-02-08T12:50:05;101130.75;;;-0.16;100.00
73171;BME280;61381;50.118;19.962;2023-02-08T12:55:14;101125.88;;;-0.39;100.00
73171;BME280;61381;50.118;19.962;2023-02-08T13:00:22;101117.84;;;-0.37;100.00
73171;BME280;61381;50.118;19.962;2023-02-08T13:05:30;101113.66;;;-0.30;100.00
73171;BME280;61381;50.118;19.962;2023-02-08T13:10:43;101110.72;;;-0.27;100.00
73171;BME280;61381;50.118;19.962;2023-02-08T13:15:53;101106.00;;;-0.51;100.00
73171;BME280;61381;50.118;19.962;2023-02-08T13:20:58;101098.63;;;-0.75;100.00
73171;BME280;61381;50.118;19.962;2023-02-08T13:26:02;101091.25;;;-0.99;100.00
73171;BME280;61381;50.118;19.962;2023-02-08T13:31:12;101097.78;;;-1.03;100.00
73171;BME280;61381;50.118;19.962;2023-02-08T13:36:24;101098.97;;;-0.88;100.00
73171;BME280;61381;50.118;19.962;2023-02-08T13:41:27;101100.34;;;-0.84;100.00
73171;BME280;61381;50.118;19.962;2023-02-08T13:46:36;101104.50;;;-0.53;100.00
73171;BME280;61381;50.118;19.962;2023-02-08T13:51:52;101105.53;;;-0.64;100.00
73171;BME280;61381;50.118;19.962;2023-02-08T13:56:54;101108.25;;;-0.56;100.00
73171;BME280;61381;50.118;19.962;2023-02-08T14:02:24;101107.59;;;-0.68;100.00
73171;BME280;61381;50.118;19.962;2023-02-08T14:07:39;101104.81;;;-0.57;100.00
73171;BME280;61381;50.118;19.962;2023-02-08T14:12:46;101115.34;;;-0.39;100.00
73171;BME280;61381;50.118;19.962;2023-02-08T14:17:55;101112.34;;;-0.44;100.00
73171;BME280;61381;50.118;19.962;2023-02-08T14:23:00;101111.03;;;-0.58;100.00
73171;BME280;61381;50.118;19.962;2023-02-08T14:28:03;101099.72;;;-1.05;100.00
73171;BME280;61381;50.118;19.962;2023-02-08T14:33:11;101101.97;;;-1.20;100.00
73171;BME280;61381;50.118;19.962;2023-02-08T14:43:53;101093.53;;;-1.24;100.00
73171;BME280;61381;50.118;19.962;2023-02-08T14:48:56;101096.03;;;-1.32;100.00
73171;BME280;61381;50.118;19.962;2023-02-08T14:54:02;101102.81;;;-1.30;100.00
73171;BME280;61381;50.118;19.962;2023-02-08T14:59:08;101103.50;;;-1.28;100.00
73171;BME280;61381;50.118;19.962;2023-02-08T15:04:14;101092.03;;;-1.36;100.00
73171;BME280;61381;50.118;19.962;2023-02-08T15:09:19;101090.81;;;-1.62;100.00
73171;BME280;61381;50.118;19.962;2023-02-08T15:14:22;101092.38;;;-1.88;100.00
73171;BME280;61381;50.118;19.962;2023-02-08T15:19:28;101085.00;;;-2.04;100.00
73171;BME280;61381;50.118;19.962;2023-02-08T15:24:30;101084.97;;;-2.24;100.00
73171;BME280;61381;50.118;19.962;2023-02-08T15:29:39;101077.63;;;-2.49;100.00
73171;BME280;61381;50.118;19.962;2023-02-08T15:34:44;101076.59;;;-2.68;100.00
73171;BME280;61381;50.118;19.962;2023-02-08T15:39:49;101077.72;;;-3.01;100.00
73171;BME280;61381;50.118;19.962;2023-02-08T15:44:51;101077.25;;;-3.37;100.00
73171;BME280;61381;50.118;19.962;2023-02-08T15:49:54;101067.19;;;-3.32;100.00
73171;BME280;61381;50.118;19.962;2023-02-08T15:54:56;101072.25;;;-3.41;100.00
73171;BME280;61381;50.118;19.962;2023-02-08T15:59:57;101071.63;;;-3.54;100.00
73171;BME280;61381;50.118;19.962;2023-02-08T16:05:02;101079.88;;;-3.80;100.00
73171;BME280;61381;50.118;19.962;2023-02-08T16:10:22;101069.97;;;-4.08;100.00
73171;BME280;61381;50.118;19.962;2023-02-08T16:15:36;101068.84;;;-4.27;100.00
73171;BME280;61381;50.118;19.962;2023-02-08T16:20:40;101064.66;;;-3.86;100.00
73171;BME280;61381;50.118;19.962;2023-02-08T16:25:43;101066.81;;;-3.91;100.00
73171;BME280;61381;50.118;19.962;2023-02-08T16:30:44;101076.22;;;-4.21;100.00
73171;BME280;61381;50.118;19.962;2023-02-08T16:35:47;101083.50;;;-4.36;100.00
73171;BME280;61381;50.118;19.962;2023-02-08T16:40:49;101075.41;;;-4.33;100.00
73171;BME280;61381;50.118;19.962;2023-02-08T16:46:21;101072.91;;;-4.34;100.00
73171;BME280;61381;50.118;19.962;2023-02-08T16:51:26;101071.84;;;-4.43;100.00
73171;BME280;61381;50.118;19.962;2023-02-08T16:56:27;101069.38;;;-4.56;100.00
73171;BME280;61381;50.118;19.962;2023-02-08T17:01:29;101076.75;;;-4.50;100.00
73171;BME280;61381;50.118;19.962;2023-02-08T17:06:33;101061.38;;;-4.43;100.00
73171;BME280;61381;50.118;19.962;2023-02-08T17:11:35;101069.13;;;-4.53;100.00
73171;BME280;61381;50.118;19.962;2023-02-08T17:16:36;101063.78;;;-4.51;100.00
73171;BME280;61381;50.118;19.962;2023-02-08T17:21:39;101060.03;;;-4.92;100.00
73171;BME280;61381;50.118;19.962;2023-02-08T17:26:42;101061.81;;;-4.93;100.00
73171;BME280;61381;50.118;19.962;2023-02-08T17:31:43;101056.22;;;-4.77;100.00
73171;BME280;61381;50.118;19.962;2023-02-08T17:36:46;101062.63;;;-4.70;100.00
73171;BME280;61381;50.118;19.962;2023-02-08T17:41:47;101061.19;;;-4.19;100.00
73171;BME280;61381;50.118;19.962;2023-02-08T17:46:48;101080.19;;;-4.72;100.00
73171;BME280;61381;50.118;19.962;2023-02-08T17:51:51;101067.63;;;-4.89;100.00
73171;BME280;61381;50.118;19.962;2023-02-08T17:56:52;101070.34;;;-4.91;100.00
73171;BME280;61381;50.118;19.962;2023-02-08T18:01:53;101072.97;;;-4.91;100.00
73171;BME280;61381;50.118;19.962;2023-02-08T18:06:55;101068.78;;;-5.27;100.00
73171;BME280;61381;50.118;19.962;2023-02-08T18:11:56;101061.22;;;-5.19;100.00
73171;BME280;61381;50.118;19.962;2023-02-08T18:22:57;101059.53;;;-5.20;100.00
73171;BME280;61381;50.118;19.962;2023-02-08T18:27:58;101059.84;;;-5.59;100.00
73171;BME280;61381;50.118;19.962;2023-02-08T18:32:59;101053.94;;;-5.38;100.00
73171;BME280;61381;50.118;19.962;2023-02-08T18:38:02;101063.34;;;-5.02;100.00
73171;BME280;61381;50.118;19.962;2023-02-08T18:43:03;101064.25;;;-5.37;100.00
73171;BME280;61381;50.118;19.962;2023-02-08T18:48:05;101066.00;;;-5.48;100.00
73171;BME280;61381;50.118;19.962;2023-02-08T18:53:07;101079.31;;;-5.51;100.00
73171;BME280;61381;50.118;19.962;2023-02-08T18:58:08;101075.97;;;-5.65;100.00
73171;BME280;61381;50.118;19.962;2023-02-08T19:03:09;101077.88;;;-5.56;100.00
73171;BME280;61381;50.118;19.962;2023-02-08T19:08:13;101067.50;;;-5.68;100.00
73171;BME280;61381;50.118;19.962;2023-02-08T19:13:14;101065.28;;;-5.62;100.00
73171;BME280;61381;50.118;19.962;2023-02-08T19:18:15;101068.47;;;-5.69;100.00
73171;BME280;61381;50.118;19.962;2023-02-08T19:23:17;101056.38;;;-5.70;100.00
73171;BME280;61381;50.118;19.962;2023-02-08T19:28:19;101051.25;;;-5.72;100.00
73171;BME280;61381;50.118;19.962;2023-02-08T19:33:20;101049.22;;;-5.80;100.00
73171;BME280;61381;50.118;19.962;2023-02-08T19:38:22;101045.91;;;-5.82;100.00
73171;BME280;61381;50.118;19.962;2023-02-08T19:43:24;101046.03;;;-5.72;100.00
73171;BME280;61381;50.118;19.962;2023-02-08T19:48:25;101034.53;;;-5.69;100.00
73171;BME280;61381;50.118;19.962;2023-02-08T19:53:27;101033.47;;;-5.67;100.00
73171;BME280;61381;50.118;19.962;2023-02-08T19:58:29;101027.19;;;-5.76;100.00
73171;BME280;61381;50.118;19.962;2023-02-08T20:03:30;101017.06;;;-5.80;100.00
73171;BME280;61381;50.118;19.962;2023-02-08T20:08:33;101013.59;;;-5.92;100.00
73171;BME280;61381;50.118;19.962;2023-02-08T20:13:34;101018.53;;;-6.12;100.00
73171;BME280;61381;50.118;19.962;2023-02-08T20:18:35;101009.94;;;-6.25;100.00
73171;BME280;61381;50.118;19.962;2023-02-08T20:23:38;101006.50;;;-6.25;100.00
73171;BME280;61381;50.118;19.962;2023-02-08T20:28:41;101007.72;;;-6.18;100.00
73171;BME280;61381;50.118;19.962;2023-02-08T20:33:42;101007.34;;;-6.25;100.00
73171;BME280;61381;50.118;19.962;2023-02-08T20:38:45;101013.84;;;-6.31;100.00
73171;BME280;61381;50.118;19.962;2023-02-08T20:43:46;101010.47;;;-6.44;100.00
73171;BME280;61381;50.118;19.962;2023-02-08T20:48:48;101010.78;;;-6.49;100.00
73171;BME280;61381;50.118;19.962;2023-02-08T20:53:51;100992.59;;;-6.37;100.00
73171;BME280;61381;50.118;19.962;2023-02-08T20:58:53;100991.19;;;-6.54;100.00
73171;BME280;61381;50.118;19.962;2023-02-08T21:03:54;100987.44;;;-6.50;100.00
73171;BME280;61381;50.118;19.962;2023-02-08T21:08:58;100987.88;;;-6.56;100.00
73171;BME280;61381;50.118;19.962;2023-02-08T21:14:00;100996.59;;;-6.69;100.00
73171;BME280;61381;50.118;19.962;2023-02-08T21:19:02;100974.94;;;-6.82;100.00
73171;BME280;61381;50.118;19.962;2023-02-08T21:24:05;100988.41;;;-6.88;100.00
73171;BME280;61381;50.118;19.962;2023-02-08T21:29:06;100975.28;;;-6.87;100.00
73171;BME280;61381;50.118;19.962;2023-02-08T21:34:07;100976.25;;;-7.01;100.00
73171;BME280;61381;50.118;19.962;2023-02-08T21:39:10;100968.59;;;-7.15;100.00
73171;BME280;61381;50.118;19.962;2023-02-08T21:44:11;100970.28;;;-7.40;100.00
73171;BME280;61381;50.118;19.962;2023-02-08T21:49:12;100964.75;;;-7.22;100.00
73171;BME280;61381;50.118;19.962;2023-02-08T21:54:16;100954.81;;;-7.17;100.00
73171;BME280;61381;50.118;19.962;2023-02-08T21:59:18;100963.19;;;-7.25;100.00
73171;BME280;61381;50.118;19.962;2023-02-08T22:04:19;100946.47;;;-7.09;100.00
73171;BME280;61381;50.118;19.962;2023-02-08T22:09:22;100940.38;;;-7.21;100.00
73171;BME280;61381;50.118;19.962;2023-02-08T22:14:23;100949.38;;;-7.51;100.00
73171;BME280;61381;50.118;19.962;2023-02-08T22:19:24;100944.16;;;-8.02;100.00
73171;BME280;61381;50.118;19.962;2023-02-08T22:24:27;100945.06;;;-8.29;100.00
73171;BME280;61381;50.118;19.962;2023-02-08T22:29:28;100939.56;;;-8.25;100.00
73171;BME280;61381;50.118;19.962;2023-02-08T22:34:30;100940.09;;;-7.55;100.00
73171;BME280;61381;50.118;19.962;2023-02-08T22:39:32;100937.69;;;-8.22;100.00
73171;BME280;61381;50.118;19.962;2023-02-08T22:44:33;100938.13;;;-8.69;100.00
73171;BME280;61381;50.118;19.962;2023-02-08T22:49:35;100941.66;;;-8.97;100.00
73171;BME280;61381;50.118;19.962;2023-02-08T22:54:38;100937.59;;;-9.01;100.00
73171;BME280;61381;50.118;19.962;2023-02-08T22:59:39;100925.31;;;-8.85;100.00
73171;BME280;61381;50.118;19.962;2023-02-08T23:04:40;100919.72;;;-8.79;100.00
73171;BME280;61381;50.118;19.962;2023-02-08T23:09:43;100906.59;;;-8.50;100.00
73171;BME280;61381;50.118;19.962;2023-02-08T23:14:44;100900.00;;;-8.43;100.00
73171;BME280;61381;50.118;19.962;2023-02-08T23:19:45;100895.72;;;-9.09;100.00
73171;BME280;61381;50.118;19.962;2023-02-08T23:24:48;100887.44;;;-9.16;100.00
73171;BME280;61381;50.118;19.962;2023-02-08T23:29:49;100892.97;;;-9.35;100.00
73171;BME280;61381;50.118;19.962;2023-02-08T23:34:50;100893.25;;;-8.71;100.00
73171;BME280;61381;50.118;19.962;2023-02-08T23:39:52;100890.19;;;-8.77;100.00
73171;BME280;61381;50.118;19.962;2023-02-08T23:44:54;100902.31;;;-9.33;100.00
73171;BME280;61381;50.118;19.962;2023-02-08T23:49:55;100895.47;;;-9.48;100.00
73171;BME280;61381;50.118;19.962;2023-02-08T23:54:58;100894.56;;;-9.47;100.00
73171;BME280;61381;50.118;19.962;2023-02-08T23:59:59;100877.66;;;-9.81;100.00
